Peoria, IL

10:43 AM CDT on April 25, 2015 (GMT -0500)
DracoPhyre PWS | | Change Station
CLOSE
Current Station
Personal Weather Station
Location: Peoria, IL
Elevation: 640 ft
Nearby Weather Stations

Elev 640 ft 40.72 °N, 89.59 °W | Updated 41 seconds ago

Rain
Rain
46.2 °F
Feels Like 46 °F
N
0.7
Wind Variable Wind from East
Gusts 4.5 mph

Today
High -- | Low -- °F
--% Chance of Precip.
Yesterday
High -- | Low -- °F
Precip. -- in
6:05 AM 7:48 PM
Waxing Crescent, 47% visible
Pressure 29.65 in
Visibility 1.8 miles
Clouds Scattered Clouds 600 ft
Mostly Cloudy 3500 ft
Overcast 7500 ft
Windchill 46 °F
Dew Point 46 °F
Humidity 99%
Rainfall 0.00 in
Snow Depth Not available.
UV 2 out of 12
Pollen 10.00 out of 12
Air Quality Not available.
Flu Activity Regional
SPECI KPIA 251537Z 07015KT 1 3/4SM +RA BR SCT006 BKN035 OVC075 09/07 A2965 RMK AO2 LTG DSNT SE P0027 T00890072

More Conditions Fewer Conditions

Pressure 29.65 in
Visibility 1.8 miles
Clouds Scattered Clouds 600 ft
Mostly Cloudy 3500 ft
Overcast 7500 ft
Windchill 46 °F
Dew Point 46 °F
Humidity 99%
Rainfall 0.00 in
Snow Depth Not available.
UV 2 out of 12
Pollen 10.00 out of 12
Air Quality Not available.
Flu Activity Regional
SPECI KPIA 251537Z 07015KT 1 3/4SM +RA BR SCT006 BKN035 OVC075 09/07 A2965 RMK AO2 LTG DSNT SE P0027 T00890072

More Conditions Fewer Conditions

10-Day Weather Forecast

Almanac

Astronomy

Apr. 25, 2015 Rise Set
Actual Time
Civil Twilight
Nautical Twilight
Astronomical Twilight
Moon
Length of Visible Light
Length of Day
Tomorrow will be .
, % of the Moon is Illuminated

Today's Extremes

State Highs State Lows

Community

WunderPhotos

Upload Photos

1,816,719 photos uploaded!

WunderBlogs® & News

Nearby

Air Quality

  Air Quality AQ Index Pollutant
Not available.

Snow Depth

Station Depth Elevation

Earthquake Activity

City Distance Mag. Time & Date
Minimum magnitude displayed is 2.5.

Coastal Water Temperatures

Place Temperature

Stations

Nearby Weather Stations

Station Location Temp. Windchill Dew Point Humidity Wind Precip. Elev Updated Type